This is the latest recevied weather packets stored in our database for station/object OK1FET-15. If no packets are shown the sender has not sent any weather packets the latest 1 day(s).
| Time | Temp. | Humidity | Pressure | Rain* | Wind** | Luminosity | Snow |
|---|---|---|---|---|---|---|---|
| 1778082156 | 22.22° C | 62% | 1003.4 hPa | - | - | - | - |
| 1778081848 | 22.78° C | 61% | 1003.5 hPa | - | - | - | - |
| 1778081540 | 23.33° C | 62% | 1003.7 hPa | - | - | - | - |
| 1778081232 | 23.33° C | 59% | 1003.6 hPa | - | - | - | - |
| 1778080254 | 26.67° C | 44% | 1003.5 hPa | - | - | - | - |
| 1778079946 | 27.22° C | 51% | 1003.5 hPa | - | - | - | - |
| 1778079003 | 27.22° C | 43% | 1003.6 hPa | - | - | - | - |
| 1778077770 | 23.89° C | 50% | 1004.1 hPa | - | - | - | - |
| 1778077462 | 25° C | 51% | 1004.3 hPa | - | - | - | - |
| 1778077154 | 26.11° C | 51% | 1004.2 hPa | - | - | - | - |
| 1778076537 | 27.22° C | 58% | 1004.2 hPa | - | - | - | - |
| 1778075612 | 25.56° C | 46% | 1004.3 hPa | - | - | - | - |
| 1778074995 | 27.22° C | 48% | 1004.4 hPa | - | - | - | - |
| 1778074687 | 28.33° C | 58% | 1004.5 hPa | - | - | - | - |
| 1778074070 | 27.22° C | 46% | 1004.5 hPa | - | - | - | - |
| 1778073762 | 26.11° C | 49% | 1004.6 hPa | - | - | - | - |
| 1778073145 | 26.11° C | 54% | 1004.7 hPa | - | - | - | - |
| 1778072837 | 26.11° C | 52% | 1004.8 hPa | - | - | - | - |
| 1778072220 | 28.33° C | 53% | 1004.9 hPa | - | - | - | - |
| 1778070642 | 30.56° C | 55% | 1005.2 hPa | - | - | - | - |
| 1778069681 | 27.22° C | 57% | 1005.6 hPa | - | - | - | - |
| 1778069355 | 27.78° C | 56% | 1005.7 hPa | - | - | - | - |
| 1778069029 | 28.33° C | 49% | 1005.8 hPa | - | - | - | - |
| 1778068703 | 27.78° C | 53% | 1005.9 hPa | - | - | - | - |
| 1778068377 | 28.33° C | 68% | 1005.9 hPa | - | - | - | - |
* Rain since midnight (hover to see other rain measurements)
** Current wind speed in m/s (hover to see current wind gust speed)